Главная страница
METAR-TAF:

METAR-TAF

Аэропорты :

Frederick Municipal Airport

Фредерик, Мэриленд, США

широта: 39-25-03N, долгота: 077-22-28W, высота над уровнем моря: 92 м

Текущие метеонаблюдения

Эта сводка был подготовлена 32 минут назад, в 12:47 UTC
Ветер 8 Узел от южный-юго-западный
Температура 1°C
Влажность 55%
Давление 1014 hPa
Видимость: 16.1 км
Рассеянная облачность на высоте 6000 фута
Рассеянная облачность на высоте 7500 фута

METAR: KFDK 281247Z 20008KT 10SM BKN060 BKN075 01/M07 A2994

Время: 08:19 (13:19 UTC)


TAF: отсутствует

Метеонаблюдения и прогнозы для более 4000 аэропортов (сводки METAR и TAF).

Имеющиеся станции представлены на карте желтыми и красными точками.

Чтобы увидеть название станции, наведите на нее мышь.

Затем щелкните, чтобы увидеть метеонаблюдения и метеопрогнозы.

Управление картой: чтобы увеличить масштаб, щелкните зеленые кнопки с черным крестиком; чтобы уменьшить масштаб, щелкните зеленую кнопку с тире; для просмотра соседних карт щелкайте зеленые стрелки.


METAR-TAF: